THY4KD LTAI-LTFM
Flight info
| Callsign | THY4KD |
|---|---|
| Flight time | 0h 51m |
| Altitude | 38000 |
| Route | EKSEN UM855 SISPI |
| Aircraft | B77W/H-SDE1E2E3FGHIJ2J3J4J5M1RWXY/LB1D1 |
Departure
| Time | 2026-05-05 09:39 |
|---|---|
| Airport | Antalya International Airport (LTAI) |
Arrival
| Time | 2026-05-05 10:30 |
|---|---|
| Airport | İstanbul Airport (LTFM) |
| Time | Latitude | Longitude | Altitude | Speed | Heading |
|---|---|---|---|---|---|
| 2026-05-05 09:21 | 36.91045 | 30.79896 | 185 ft | 2 kts | 128° |
| 2026-05-05 09:21 | 36.91054 | 30.79882 | 185 ft | 2 kts | 140° |
| 2026-05-05 09:21 | 36.91067 | 30.79871 | 185 ft | 2 kts | 152° |
| 2026-05-05 09:21 | 36.91081 | 30.79864 | 185 ft | 2 kts | 164° |
| 2026-05-05 09:22 | 36.91095 | 30.79860 | 185 ft | 2 kts | 176° |
| 2026-05-05 09:22 | 36.91110 | 30.79860 | 185 ft | 2 kts | 188° |
| 2026-05-05 09:22 | 36.91121 | 30.79863 | 185 ft | 0 kts | 189° |
| 2026-05-05 09:24 | 36.91120 | 30.79862 | 185 ft | 0 kts | 189° |
| 2026-05-05 09:24 | 36.91100 | 30.79858 | 185 ft | 5 kts | 189° |
| 2026-05-05 09:25 | 36.91051 | 30.79849 | 185 ft | 9 kts | 189° |
| 2026-05-05 09:25 | 36.90984 | 30.79835 | 185 ft | 9 kts | 191° |
| 2026-05-05 09:25 | 36.90921 | 30.79803 | 185 ft | 9 kts | 216° |
| 2026-05-05 09:25 | 36.90867 | 30.79753 | 185 ft | 9 kts | 206° |
| 2026-05-05 09:26 | 36.90802 | 30.79732 | 185 ft | 9 kts | 187° |
| 2026-05-05 09:26 | 36.90734 | 30.79722 | 185 ft | 10 kts | 187° |
| 2026-05-05 09:26 | 36.90663 | 30.79712 | 185 ft | 10 kts | 186° |
| 2026-05-05 09:26 | 36.90592 | 30.79702 | 185 ft | 10 kts | 187° |
| 2026-05-05 09:27 | 36.90518 | 30.79691 | 185 ft | 10 kts | 187° |
| 2026-05-05 09:27 | 36.90445 | 30.79676 | 185 ft | 10 kts | 195° |
| 2026-05-05 09:27 | 36.90373 | 30.79648 | 185 ft | 10 kts | 197° |
| 2026-05-05 09:27 | 36.90299 | 30.79628 | 185 ft | 11 kts | 188° |
| 2026-05-05 09:28 | 36.90216 | 30.79615 | 185 ft | 12 kts | 187° |
| 2026-05-05 09:28 | 36.90124 | 30.79602 | 185 ft | 13 kts | 187° |
| 2026-05-05 09:28 | 36.90028 | 30.79587 | 185 ft | 14 kts | 187° |
| 2026-05-05 09:28 | 36.89928 | 30.79573 | 185 ft | 14 kts | 187° |
| 2026-05-05 09:29 | 36.89831 | 30.79556 | 185 ft | 13 kts | 188° |
| 2026-05-05 09:29 | 36.89739 | 30.79540 | 185 ft | 10 kts | 187° |
| 2026-05-05 09:29 | 36.89677 | 30.79500 | 185 ft | 10 kts | 244° |
| 2026-05-05 09:29 | 36.89637 | 30.79433 | 185 ft | 9 kts | 208° |
| 2026-05-05 09:30 | 36.89571 | 30.79420 | 185 ft | 9 kts | 186° |
| 2026-05-05 09:30 | 36.89503 | 30.79411 | 185 ft | 10 kts | 186° |
| 2026-05-05 09:30 | 36.89433 | 30.79401 | 185 ft | 10 kts | 186° |
| 2026-05-05 09:30 | 36.89362 | 30.79391 | 185 ft | 10 kts | 187° |
| 2026-05-05 09:31 | 36.89289 | 30.79382 | 184 ft | 10 kts | 185° |
| 2026-05-05 09:31 | 36.89232 | 30.79391 | 184 ft | 8 kts | 149° |
| 2026-05-05 09:31 | 36.89210 | 30.79451 | 184 ft | 8 kts | 91° |
| 2026-05-05 09:31 | 36.89209 | 30.79525 | 184 ft | 8 kts | 91° |
| 2026-05-05 09:32 | 36.89207 | 30.79601 | 184 ft | 8 kts | 95° |
| 2026-05-05 09:32 | 36.89200 | 30.79681 | 184 ft | 9 kts | 96° |
| 2026-05-05 09:32 | 36.89193 | 30.79764 | 184 ft | 9 kts | 96° |
| 2026-05-05 09:32 | 36.89186 | 30.79852 | 184 ft | 10 kts | 96° |
| 2026-05-05 09:33 | 36.89178 | 30.79942 | 184 ft | 10 kts | 96° |
| 2026-05-05 09:33 | 36.89169 | 30.80036 | 184 ft | 11 kts | 96° |
| 2026-05-05 09:33 | 36.89161 | 30.80131 | 184 ft | 11 kts | 96° |
| 2026-05-05 09:33 | 36.89153 | 30.80230 | 184 ft | 11 kts | 96° |
| 2026-05-05 09:34 | 36.89143 | 30.80331 | 184 ft | 11 kts | 96° |
| 2026-05-05 09:34 | 36.89135 | 30.80433 | 184 ft | 11 kts | 96° |
| 2026-05-05 09:34 | 36.89126 | 30.80536 | 184 ft | 12 kts | 96° |
| 2026-05-05 09:34 | 36.89091 | 30.80619 | 184 ft | 11 kts | 163° |
| 2026-05-05 09:35 | 36.89011 | 30.80610 | 184 ft | 11 kts | 188° |
| 2026-05-05 09:35 | 36.88818 | 30.80584 | 184 ft | 19 kts | 186° |
| 2026-05-05 09:35 | 36.88688 | 30.80566 | 184 ft | 18 kts | 186° |
| 2026-05-05 09:36 | 36.88565 | 30.80549 | 184 ft | 17 kts | 186° |
| 2026-05-05 09:36 | 36.88451 | 30.80533 | 184 ft | 16 kts | 186° |
| 2026-05-05 09:36 | 36.88341 | 30.80519 | 184 ft | 15 kts | 186° |
| 2026-05-05 09:36 | 36.88240 | 30.80506 | 184 ft | 14 kts | 186° |
| 2026-05-05 09:37 | 36.88164 | 30.80508 | 184 ft | 9 kts | 149° |
| 2026-05-05 09:37 | 36.88143 | 30.80584 | 184 ft | 9 kts | 94° |
| 2026-05-05 09:37 | 36.88138 | 30.80669 | 184 ft | 10 kts | 94° |
| 2026-05-05 09:37 | 36.88148 | 30.80721 | 184 ft | 4 kts | 39° |
| 2026-05-05 09:38 | 36.88178 | 30.80733 | 184 ft | 4 kts | 7° |
| 2026-05-05 09:38 | 36.88251 | 30.80744 | 184 ft | 20 kts | 7° |
| 2026-05-05 09:38 | 36.88651 | 30.80796 | 184 ft | 102 kts | 6° |
| 2026-05-05 09:38 | 36.89652 | 30.80936 | 217 ft | 178 kts | 4° |
| 2026-05-05 09:39 | 36.90966 | 30.81126 | 871 ft | 204 kts | 4° |
| 2026-05-05 09:39 | 36.92415 | 30.81323 | 1988 ft | 221 kts | 3° |
| 2026-05-05 09:39 | 36.93941 | 30.81534 | 3236 ft | 228 kts | 5° |
| 2026-05-05 09:39 | 36.95499 | 30.82103 | 4177 ft | 243 kts | 25° |
| 2026-05-05 09:40 | 36.96879 | 30.83318 | 5280 ft | 249 kts | 36° |
| 2026-05-05 09:40 | 36.98288 | 30.84540 | 6287 ft | 257 kts | 26° |
| 2026-05-05 09:40 | 36.99971 | 30.85488 | 7181 ft | 272 kts | 19° |
| 2026-05-05 09:40 | 37.01729 | 30.86322 | 8192 ft | 277 kts | 19° |
| 2026-05-05 09:41 | 37.03513 | 30.87170 | 9170 ft | 282 kts | 20° |
| 2026-05-05 09:41 | 37.05359 | 30.88063 | 9746 ft | 285 kts | 20° |
| 2026-05-05 09:41 | 37.07248 | 30.88719 | 9911 ft | 283 kts | 3° |
| 2026-05-05 09:41 | 37.09250 | 30.88525 | 10277 ft | 300 kts | 350° |
| 2026-05-05 09:42 | 37.11345 | 30.88034 | 11094 ft | 316 kts | 349° |
| 2026-05-05 09:42 | 37.13555 | 30.87478 | 11962 ft | 331 kts | 349° |
| 2026-05-05 09:42 | 37.15864 | 30.86894 | 12846 ft | 346 kts | 349° |
| 2026-05-05 09:42 | 37.18275 | 30.86288 | 13639 ft | 360 kts | 349° |
| 2026-05-05 09:43 | 37.20782 | 30.85662 | 14455 ft | 373 kts | 349° |
| 2026-05-05 09:43 | 37.23326 | 30.85022 | 15395 ft | 381 kts | 349° |
| 2026-05-05 09:43 | 37.25939 | 30.84364 | 16393 ft | 387 kts | 349° |
| 2026-05-05 09:43 | 37.28592 | 30.83696 | 17405 ft | 391 kts | 349° |
| 2026-05-05 09:44 | 37.31258 | 30.83024 | 18403 ft | 395 kts | 349° |
| 2026-05-05 09:44 | 37.33939 | 30.82348 | 19373 ft | 399 kts | 349° |
| 2026-05-05 09:44 | 37.36675 | 30.81655 | 20331 ft | 403 kts | 348° |
| 2026-05-05 09:44 | 37.39399 | 30.80963 | 21223 ft | 406 kts | 348° |
| 2026-05-05 09:45 | 37.42189 | 30.80369 | 22128 ft | 409 kts | 354° |
| 2026-05-05 09:45 | 37.45051 | 30.80263 | 23025 ft | 413 kts | 0° |
| 2026-05-05 09:45 | 37.47902 | 30.80351 | 23904 ft | 417 kts | 0° |
| 2026-05-05 09:45 | 37.50822 | 30.80458 | 24631 ft | 420 kts | 1° |
| 2026-05-05 09:46 | 37.53750 | 30.80594 | 25428 ft | 424 kts | 0° |
| 2026-05-05 09:46 | 37.56668 | 30.80733 | 26563 ft | 425 kts | 0° |
| 2026-05-05 09:46 | 37.59628 | 30.80872 | 28062 ft | 426 kts | 359° |
| 2026-05-05 09:46 | 37.62593 | 30.81009 | 29132 ft | 427 kts | 359° |
| 2026-05-05 09:47 | 37.65561 | 30.81145 | 30018 ft | 428 kts | 359° |
| 2026-05-05 09:47 | 37.68502 | 30.81278 | 30990 ft | 425 kts | 358° |
| 2026-05-05 09:47 | 37.71413 | 30.81143 | 31874 ft | 420 kts | 352° |
| 2026-05-05 09:47 | 37.74273 | 30.80535 | 32595 ft | 418 kts | 345° |
| 2026-05-05 09:48 | 37.77079 | 30.79444 | 33236 ft | 417 kts | 338° |
| 2026-05-05 09:48 | 37.79744 | 30.77890 | 33826 ft | 418 kts | 331° |
| 2026-05-05 09:48 | 37.82188 | 30.75927 | 34436 ft | 419 kts | 324° |
| 2026-05-05 09:48 | 37.84503 | 30.73726 | 34891 ft | 418 kts | 327° |
| 2026-05-05 09:49 | 37.87012 | 30.71854 | 35239 ft | 420 kts | 334° |
| 2026-05-05 09:49 | 37.89711 | 30.70400 | 35512 ft | 422 kts | 339° |
| 2026-05-05 09:49 | 37.92511 | 30.69210 | 35784 ft | 425 kts | 342° |
| 2026-05-05 09:49 | 37.95336 | 30.68194 | 36125 ft | 427 kts | 344° |
| 2026-05-05 09:50 | 37.98240 | 30.67281 | 36485 ft | 429 kts | 345° |
| 2026-05-05 09:50 | 38.01123 | 30.66441 | 36888 ft | 431 kts | 346° |
| 2026-05-05 09:50 | 38.04097 | 30.65715 | 37250 ft | 433 kts | 348° |
| 2026-05-05 09:50 | 38.07055 | 30.65093 | 37588 ft | 434 kts | 349° |
| 2026-05-05 09:51 | 38.10063 | 30.64532 | 37929 ft | 435 kts | 350° |
| 2026-05-05 09:51 | 38.13102 | 30.64019 | 38004 ft | 439 kts | 351° |
| 2026-05-05 09:51 | 38.19168 | 30.63086 | 38012 ft | 437 kts | 351° |
| 2026-05-05 09:52 | 38.25172 | 30.62229 | 38026 ft | 436 kts | 351° |
| 2026-05-05 09:52 | 38.31192 | 30.61395 | 38030 ft | 437 kts | 352° |
| 2026-05-05 09:53 | 38.37284 | 30.60554 | 38032 ft | 438 kts | 352° |
| 2026-05-05 09:53 | 38.43308 | 30.59732 | 38020 ft | 438 kts | 352° |
| 2026-05-05 09:54 | 38.49392 | 30.58904 | 38028 ft | 439 kts | 352° |
| 2026-05-05 09:54 | 38.55436 | 30.58083 | 38027 ft | 439 kts | 352° |
| 2026-05-05 09:55 | 38.61520 | 30.57257 | 38015 ft | 439 kts | 352° |
| 2026-05-05 09:55 | 38.67607 | 30.56429 | 38022 ft | 440 kts | 352° |
| 2026-05-05 09:56 | 38.73702 | 30.55599 | 38025 ft | 441 kts | 352° |
| 2026-05-05 09:56 | 38.79719 | 30.54511 | 38020 ft | 437 kts | 343° |
| 2026-05-05 09:57 | 38.85331 | 30.51550 | 38033 ft | 440 kts | 333° |
| 2026-05-05 09:57 | 38.90794 | 30.48059 | 38031 ft | 439 kts | 333° |
| 2026-05-05 09:58 | 38.96258 | 30.44561 | 38030 ft | 439 kts | 333° |
| 2026-05-05 09:58 | 39.01751 | 30.41040 | 38040 ft | 440 kts | 333° |
| 2026-05-05 09:59 | 39.07188 | 30.37547 | 38050 ft | 438 kts | 333° |
| 2026-05-05 09:59 | 39.12678 | 30.34015 | 38048 ft | 438 kts | 333° |
| 2026-05-05 10:00 | 39.18147 | 30.30491 | 38060 ft | 440 kts | 333° |
| 2026-05-05 10:00 | 39.23601 | 30.26969 | 38045 ft | 439 kts | 333° |
| 2026-05-05 10:01 | 39.29090 | 30.23420 | 38047 ft | 440 kts | 333° |
| 2026-05-05 10:01 | 39.34534 | 30.19893 | 38051 ft | 438 kts | 333° |
| 2026-05-05 10:02 | 39.39959 | 30.16372 | 38050 ft | 438 kts | 333° |
| 2026-05-05 10:02 | 39.45397 | 30.12836 | 37985 ft | 434 kts | 333° |
| 2026-05-05 10:03 | 39.48113 | 30.11149 | 37387 ft | 435 kts | 336° |
| 2026-05-05 10:03 | 39.50870 | 30.09633 | 36601 ft | 439 kts | 337° |
| 2026-05-05 10:03 | 39.53678 | 30.08100 | 35959 ft | 442 kts | 337° |
| 2026-05-05 10:03 | 39.56502 | 30.06548 | 35301 ft | 447 kts | 337° |
| 2026-05-05 10:04 | 39.59379 | 30.04960 | 34399 ft | 453 kts | 337° |
| 2026-05-05 10:04 | 39.62281 | 30.03352 | 33376 ft | 457 kts | 337° |
| 2026-05-05 10:04 | 39.65192 | 30.01734 | 32474 ft | 458 kts | 337° |
| 2026-05-05 10:04 | 39.68108 | 30.00109 | 31595 ft | 458 kts | 337° |
| 2026-05-05 10:05 | 39.71041 | 29.98472 | 30748 ft | 457 kts | 337° |
| 2026-05-05 10:05 | 39.73916 | 29.96864 | 30239 ft | 449 kts | 337° |
| 2026-05-05 10:05 | 39.76742 | 29.95282 | 29764 ft | 441 kts | 337° |
| 2026-05-05 10:05 | 39.79568 | 29.93697 | 29237 ft | 434 kts | 337° |
| 2026-05-05 10:06 | 39.82311 | 29.92156 | 28711 ft | 428 kts | 337° |
| 2026-05-05 10:06 | 39.84992 | 29.90649 | 28246 ft | 421 kts | 337° |
| 2026-05-05 10:06 | 39.87656 | 29.89149 | 28164 ft | 405 kts | 337° |
| 2026-05-05 10:06 | 39.90234 | 29.87888 | 28066 ft | 390 kts | 344° |
| 2026-05-05 10:07 | 39.92841 | 29.87187 | 27895 ft | 379 kts | 352° |
| 2026-05-05 10:07 | 39.95471 | 29.86991 | 27509 ft | 387 kts | 357° |
| 2026-05-05 10:07 | 39.98159 | 29.86688 | 26757 ft | 388 kts | 349° |
| 2026-05-05 10:07 | 40.00822 | 29.85829 | 25460 ft | 401 kts | 341° |
| 2026-05-05 10:08 | 40.03361 | 29.84340 | 24639 ft | 400 kts | 330° |
| 2026-05-05 10:08 | 40.05636 | 29.82370 | 24315 ft | 388 kts | 326° |
| 2026-05-05 10:08 | 40.07798 | 29.80346 | 24090 ft | 376 kts | 325° |
| 2026-05-05 10:08 | 40.09880 | 29.78393 | 23557 ft | 374 kts | 325° |
| 2026-05-05 10:09 | 40.12028 | 29.76377 | 22852 ft | 376 kts | 325° |
| 2026-05-05 10:09 | 40.14119 | 29.74411 | 22233 ft | 376 kts | 326° |
| 2026-05-05 10:09 | 40.16252 | 29.72405 | 21713 ft | 373 kts | 326° |
| 2026-05-05 10:09 | 40.18345 | 29.70435 | 21194 ft | 371 kts | 326° |
| 2026-05-05 10:10 | 40.20430 | 29.68471 | 20660 ft | 369 kts | 326° |
| 2026-05-05 10:10 | 40.22475 | 29.66542 | 20117 ft | 367 kts | 326° |
| 2026-05-05 10:10 | 40.24542 | 29.64592 | 19576 ft | 366 kts | 326° |
| 2026-05-05 10:10 | 40.26615 | 29.62635 | 19042 ft | 364 kts | 326° |
| 2026-05-05 10:11 | 40.28650 | 29.60712 | 18510 ft | 363 kts | 326° |
| 2026-05-05 10:11 | 40.30694 | 29.58779 | 17980 ft | 361 kts | 327° |
| 2026-05-05 10:11 | 40.32717 | 29.56865 | 17495 ft | 359 kts | 326° |
| 2026-05-05 10:11 | 40.34743 | 29.54948 | 16987 ft | 358 kts | 326° |
| 2026-05-05 10:12 | 40.36728 | 29.53066 | 16732 ft | 349 kts | 325° |
| 2026-05-05 10:12 | 40.38658 | 29.51233 | 16581 ft | 340 kts | 325° |
| 2026-05-05 10:12 | 40.40566 | 29.49422 | 16218 ft | 337 kts | 324° |
| 2026-05-05 10:12 | 40.42449 | 29.47634 | 15710 ft | 335 kts | 325° |
| 2026-05-05 10:13 | 40.44322 | 29.45853 | 15315 ft | 329 kts | 326° |
| 2026-05-05 10:13 | 40.46156 | 29.44109 | 14923 ft | 323 kts | 326° |
| 2026-05-05 10:13 | 40.47943 | 29.42407 | 14521 ft | 318 kts | 327° |
| 2026-05-05 10:13 | 40.49709 | 29.40725 | 14069 ft | 315 kts | 327° |
| 2026-05-05 10:14 | 40.51498 | 29.39021 | 13551 ft | 315 kts | 327° |
| 2026-05-05 10:14 | 40.53251 | 29.37349 | 13156 ft | 307 kts | 327° |
| 2026-05-05 10:14 | 40.54926 | 29.35747 | 12873 ft | 293 kts | 327° |
| 2026-05-05 10:14 | 40.56565 | 29.34181 | 12496 ft | 288 kts | 326° |
| 2026-05-05 10:15 | 40.58194 | 29.32626 | 12093 ft | 288 kts | 326° |
| 2026-05-05 10:15 | 40.59795 | 29.31097 | 11700 ft | 287 kts | 326° |
| 2026-05-05 10:15 | 40.61418 | 29.29545 | 11315 ft | 286 kts | 326° |
| 2026-05-05 10:15 | 40.62934 | 29.27838 | 10909 ft | 287 kts | 314° |
| 2026-05-05 10:16 | 40.64211 | 29.25861 | 10550 ft | 285 kts | 311° |
| 2026-05-05 10:16 | 40.65468 | 29.23858 | 10191 ft | 284 kts | 311° |
| 2026-05-05 10:16 | 40.66729 | 29.21852 | 9824 ft | 282 kts | 311° |
| 2026-05-05 10:16 | 40.67971 | 29.19873 | 9480 ft | 280 kts | 311° |
| 2026-05-05 10:17 | 40.69203 | 29.17906 | 9141 ft | 278 kts | 311° |
| 2026-05-05 10:17 | 40.70419 | 29.15960 | 8806 ft | 276 kts | 311° |
| 2026-05-05 10:17 | 40.71634 | 29.14021 | 8578 ft | 269 kts | 311° |
| 2026-05-05 10:17 | 40.72815 | 29.12128 | 8396 ft | 263 kts | 311° |
| 2026-05-05 10:18 | 40.73953 | 29.10304 | 8113 ft | 261 kts | 311° |
| 2026-05-05 10:18 | 40.75108 | 29.08454 | 7808 ft | 259 kts | 311° |
| 2026-05-05 10:18 | 40.76242 | 29.06631 | 7513 ft | 258 kts | 311° |
| 2026-05-05 10:18 | 40.77377 | 29.04809 | 7210 ft | 257 kts | 311° |
| 2026-05-05 10:19 | 40.78517 | 29.02978 | 6905 ft | 255 kts | 310° |
| 2026-05-05 10:19 | 40.79631 | 29.01184 | 6605 ft | 254 kts | 310° |
| 2026-05-05 10:19 | 40.80750 | 28.99383 | 6306 ft | 253 kts | 310° |
| 2026-05-05 10:19 | 40.81850 | 28.97611 | 6006 ft | 252 kts | 310° |
| 2026-05-05 10:20 | 40.82968 | 28.95819 | 5702 ft | 251 kts | 311° |
| 2026-05-05 10:20 | 40.84082 | 28.94026 | 5398 ft | 250 kts | 310° |
| 2026-05-05 10:20 | 40.85172 | 28.92279 | 5111 ft | 249 kts | 310° |
| 2026-05-05 10:20 | 40.86248 | 28.90553 | 5061 ft | 237 kts | 310° |
| 2026-05-05 10:21 | 40.87277 | 28.88902 | 4949 ft | 228 kts | 310° |
| 2026-05-05 10:21 | 40.88270 | 28.87293 | 4700 ft | 227 kts | 310° |
| 2026-05-05 10:21 | 40.89267 | 28.85675 | 4431 ft | 227 kts | 310° |
| 2026-05-05 10:21 | 40.90258 | 28.84068 | 4181 ft | 226 kts | 310° |
| 2026-05-05 10:22 | 40.91239 | 28.82474 | 4018 ft | 222 kts | 310° |
| 2026-05-05 10:22 | 40.92217 | 28.80888 | 4002 ft | 225 kts | 310° |
| 2026-05-05 10:22 | 40.93318 | 28.79408 | 3992 ft | 224 kts | 326° |
| 2026-05-05 10:22 | 40.94639 | 28.78309 | 3995 ft | 220 kts | 330° |
| 2026-05-05 10:23 | 40.95910 | 28.77313 | 3994 ft | 208 kts | 330° |
| 2026-05-05 10:23 | 40.97208 | 28.76552 | 3993 ft | 203 kts | 348° |
| 2026-05-05 10:23 | 40.98617 | 28.76276 | 3996 ft | 202 kts | 355° |
| 2026-05-05 10:23 | 41.00012 | 28.76165 | 3997 ft | 202 kts | 358° |
| 2026-05-05 10:24 | 41.01416 | 28.76114 | 3998 ft | 201 kts | 359° |
| 2026-05-05 10:24 | 41.02819 | 28.76084 | 3998 ft | 201 kts | 359° |
| 2026-05-05 10:24 | 41.04221 | 28.76065 | 4002 ft | 201 kts | 359° |
| 2026-05-05 10:24 | 41.05603 | 28.76050 | 3993 ft | 193 kts | 359° |
| 2026-05-05 10:25 | 41.06912 | 28.76033 | 3994 ft | 185 kts | 359° |
| 2026-05-05 10:25 | 41.08209 | 28.76015 | 3797 ft | 183 kts | 359° |
| 2026-05-05 10:25 | 41.09462 | 28.75993 | 3565 ft | 179 kts | 359° |
| 2026-05-05 10:25 | 41.10679 | 28.75965 | 3338 ft | 167 kts | 359° |
| 2026-05-05 10:26 | 41.11826 | 28.75944 | 3132 ft | 161 kts | 359° |
| 2026-05-05 10:26 | 41.12909 | 28.75925 | 2928 ft | 151 kts | 359° |
| 2026-05-05 10:26 | 41.13944 | 28.75904 | 2741 ft | 141 kts | 360° |
| 2026-05-05 10:26 | 41.14920 | 28.75886 | 2579 ft | 139 kts | 360° |
| 2026-05-05 10:27 | 41.15881 | 28.75868 | 2413 ft | 138 kts | 360° |
| 2026-05-05 10:27 | 41.16839 | 28.75850 | 2236 ft | 137 kts | 360° |
| 2026-05-05 10:27 | 41.17800 | 28.75832 | 2066 ft | 136 kts | 359° |
| 2026-05-05 10:27 | 41.18749 | 28.75816 | 1877 ft | 137 kts | 359° |
| 2026-05-05 10:28 | 41.19697 | 28.75794 | 1682 ft | 135 kts | 359° |
| 2026-05-05 10:28 | 41.20638 | 28.75777 | 1486 ft | 135 kts | 359° |
| 2026-05-05 10:28 | 41.21575 | 28.75761 | 1294 ft | 134 kts | 359° |
| 2026-05-05 10:28 | 41.22512 | 28.75742 | 1099 ft | 134 kts | 359° |
| 2026-05-05 10:29 | 41.23438 | 28.75725 | 897 ft | 134 kts | 358° |
| 2026-05-05 10:29 | 41.24372 | 28.75704 | 728 ft | 134 kts | 358° |
| 2026-05-05 10:29 | 41.25302 | 28.75691 | 511 ft | 133 kts | 358° |
| 2026-05-05 10:29 | 41.26225 | 28.75669 | 345 ft | 133 kts | 358° |
| 2026-05-05 10:30 | 41.27090 | 28.75649 | 300 ft | 109 kts | 359° |
| 2026-05-05 10:30 | 41.27723 | 28.75641 | 276 ft | 58 kts | 359° |
| 2026-05-05 10:30 | 41.27943 | 28.75629 | 267 ft | 19 kts | 349° |
| 2026-05-05 10:30 | 41.28038 | 28.75580 | 264 ft | 15 kts | 332° |
| 2026-05-05 10:31 | 41.28136 | 28.75507 | 260 ft | 15 kts | 321° |
| 2026-05-05 10:31 | 41.28163 | 28.75416 | 259 ft | 9 kts | 248° |
| 2026-05-05 10:31 | 41.28115 | 28.75363 | 261 ft | 8 kts | 195° |
| 2026-05-05 10:31 | 41.28066 | 28.75359 | 263 ft | 6 kts | 181° |
| 2026-05-05 10:32 | 41.28029 | 28.75359 | 264 ft | 5 kts | 180° |
| 2026-05-05 10:32 | 41.27975 | 28.75359 | 266 ft | 9 kts | 180° |
| 2026-05-05 10:32 | 41.27892 | 28.75359 | 269 ft | 13 kts | 180° |
| 2026-05-05 10:32 | 41.27788 | 28.75361 | 273 ft | 16 kts | 179° |
| 2026-05-05 10:33 | 41.27663 | 28.75363 | 278 ft | 19 kts | 179° |
| 2026-05-05 10:33 | 41.27522 | 28.75365 | 284 ft | 21 kts | 180° |
| 2026-05-05 10:33 | 41.27369 | 28.75365 | 291 ft | 22 kts | 180° |
| 2026-05-05 10:33 | 41.27204 | 28.75367 | 299 ft | 23 kts | 179° |
| 2026-05-05 10:34 | 41.27045 | 28.75370 | 302 ft | 21 kts | 179° |
| 2026-05-05 10:34 | 41.26902 | 28.75374 | 304 ft | 19 kts | 180° |
| 2026-05-05 10:34 | 41.26769 | 28.75375 | 305 ft | 18 kts | 179° |
| 2026-05-05 10:34 | 41.26650 | 28.75377 | 308 ft | 16 kts | 179° |
| 2026-05-05 10:35 | 41.26543 | 28.75379 | 311 ft | 14 kts | 179° |
| 2026-05-05 10:35 | 41.26444 | 28.75381 | 313 ft | 13 kts | 179° |
| 2026-05-05 10:35 | 41.26335 | 28.75383 | 313 ft | 17 kts | 179° |
| 2026-05-05 10:35 | 41.26245 | 28.75375 | 313 ft | 9 kts | 210° |
| 2026-05-05 10:36 | 41.26226 | 28.75275 | 308 ft | 14 kts | 270° |
| 2026-05-05 10:36 | 41.26228 | 28.75130 | 304 ft | 16 kts | 270° |
| 2026-05-05 10:36 | 41.26221 | 28.75005 | 304 ft | 12 kts | 254° |
| 2026-05-05 10:36 | 41.26198 | 28.74906 | 304 ft | 6 kts | 252° |
| 2026-05-05 10:37 | 41.26189 | 28.74871 | 304 ft | 3 kts | 251° |
| 2026-05-05 10:37 | 41.26185 | 28.74856 | 304 ft | 0 kts | 251° |